Kezdőlap
METAR-TAF:

METAR-TAF

Repülőterek :

Aranyosgyéres, Románia

Baza 71 Aeriană

földrajzi szélesség: 46-30-12N, földrajzi hosszúság: 023-53-07E, magasság: 324 m

Jelenlegi meteorológiai megfigyelések

A jelentés 29 perccel ezelõtt készült, 13:00 UTC
Északi szél 7 kt
Hőmérséklet -4°C
Páratartalom 63%
Légköri nyomás 1017 hPa
Látótávolság 10 km, vagy több
Szórványos felhőzet 2000 lábon
Szakadozott felhőzet 4000 lábon

METAR: LRCT 251300Z 35007KT 9999 SCT020 BKN040 M04/M10 Q1017 BLU BLU

Idő: 15:29 (13:29 UTC)


TAF: hiányzik

Meteorológiai megfigyelések és előrejelzések több, mint 4000 repülőtéren (METAR és TAF jelentéseket).

A térképen piros és sárga pontok jelzik az elérhető meteorológiai állomásokat.

Mozgassa az egeret a pont fölött, hogy megjelenjen az állomás neve.

Azután kattintson az időjárási megfigyelések és előrejelzések megtekintéséhez.

A térkép megváltoztatása: kattintson a fekete keresztel jelölt zöld gombra ráközelítéshez, a vonallal jelölt zöld gombra távolításhoz, vagy a zöld nyilakra a szomszédos térképek eléréséhez.


METAR-TAF: